createdAt,value
2023-06-25T00:00:16.872Z,17.00
2023-06-25T00:02:45.424Z,16.94
2023-06-25T00:05:13.593Z,16.95
2023-06-25T00:07:43.427Z,16.73
2023-06-25T00:10:12.217Z,16.80
2023-06-25T00:12:41.372Z,16.97
2023-06-25T00:15:12.646Z,17.07
2023-06-25T00:17:40.978Z,16.91
2023-06-25T00:20:10.587Z,16.88
2023-06-25T00:22:39.562Z,16.75
2023-06-25T00:25:09.851Z,16.66
2023-06-25T00:27:38.659Z,16.56
2023-06-25T00:30:08.719Z,16.42
2023-06-25T00:32:36.962Z,16.48
2023-06-25T00:35:08.454Z,16.40
2023-06-25T00:37:38.102Z,16.41
2023-06-25T00:40:11.456Z,16.51
2023-06-25T00:42:45.787Z,16.45
2023-06-25T00:45:15.442Z,16.33
2023-06-25T00:47:46.671Z,16.35
2023-06-25T00:50:15.299Z,16.28
2023-06-25T00:52:43.426Z,16.28
2023-06-25T00:55:12.899Z,16.28
2023-06-25T00:57:43.064Z,16.20
2023-06-25T01:00:15.793Z,16.22
2023-06-25T01:02:48.165Z,16.18
2023-06-25T01:05:22.316Z,16.40
2023-06-25T01:07:51.088Z,16.43
2023-06-25T01:10:21.119Z,16.57
2023-06-25T01:12:53.805Z,16.41
2023-06-25T01:15:21.841Z,16.46
2023-06-25T01:17:50.419Z,16.41
2023-06-25T01:20:19.086Z,16.24
2023-06-25T01:22:49.865Z,16.03
2023-06-25T01:25:18.190Z,16.08
2023-06-25T01:27:46.961Z,15.97
2023-06-25T01:30:16.260Z,15.96
2023-06-25T01:32:45.619Z,15.95
2023-06-25T01:35:15.011Z,15.90
2023-06-25T01:37:43.892Z,16.02
2023-06-25T01:40:14.319Z,15.78
2023-06-25T01:42:42.799Z,15.81
2023-06-25T01:45:12.663Z,15.74
2023-06-25T01:47:41.259Z,15.81
2023-06-25T01:50:10.779Z,15.84
2023-06-25T01:52:39.679Z,15.62
2023-06-25T01:55:09.486Z,15.57
2023-06-25T01:57:38.867Z,15.57
2023-06-25T02:00:10.004Z,15.62
2023-06-25T02:02:38.093Z,15.49
2023-06-25T02:05:06.757Z,15.53
2023-06-25T02:07:35.228Z,15.69
2023-06-25T02:10:03.332Z,15.61
2023-06-25T02:12:31.444Z,15.49
2023-06-25T02:15:01.924Z,15.51
2023-06-25T02:17:30.041Z,15.45
2023-06-25T02:19:58.007Z,15.39
2023-06-25T02:22:26.506Z,15.38
2023-06-25T02:24:54.542Z,15.18
2023-06-25T02:27:22.526Z,15.30
2023-06-25T02:29:51.046Z,15.36
2023-06-25T02:32:20.516Z,15.32
2023-06-25T02:34:48.488Z,15.34
2023-06-25T02:37:17.378Z,15.28
2023-06-25T02:39:45.469Z,15.27
2023-06-25T02:42:13.489Z,15.32
2023-06-25T02:44:42.009Z,15.43
2023-06-25T02:47:10.175Z,15.37
2023-06-25T02:49:39.637Z,15.32
2023-06-25T02:52:08.852Z,15.35
2023-06-25T02:54:36.940Z,15.35
2023-06-25T02:57:05.286Z,15.35
2023-06-25T02:59:33.938Z,15.19
2023-06-25T03:02:02.720Z,15.31
2023-06-25T03:04:30.773Z,15.36
2023-06-25T03:07:00.749Z,15.34
2023-06-25T03:09:28.750Z,15.36
2023-06-25T03:11:57.239Z,15.25
2023-06-25T03:14:34.886Z,15.31
2023-06-25T03:17:04.857Z,15.30
2023-06-25T03:19:33.289Z,15.26
2023-06-25T03:22:02.741Z,15.42
2023-06-25T03:24:31.245Z,15.62
2023-06-25T03:26:59.301Z,16.12
2023-06-25T03:29:27.828Z,16.70
2023-06-25T03:31:55.840Z,17.49
2023-06-25T03:34:23.816Z,17.81
2023-06-25T03:36:52.474Z,18.60
2023-06-25T03:39:22.667Z,18.81
2023-06-25T03:41:50.678Z,19.61
2023-06-25T03:44:19.082Z,19.79
2023-06-25T03:46:47.485Z,20.06
2023-06-25T03:49:15.550Z,21.11
2023-06-25T03:51:43.988Z,21.18
2023-06-25T03:54:11.945Z,21.13
2023-06-25T03:56:41.293Z,22.74
2023-06-25T03:59:09.740Z,22.01
2023-06-25T04:01:37.859Z,23.22
2023-06-25T04:04:06.181Z,23.14
2023-06-25T04:06:34.632Z,23.57
2023-06-25T04:09:02.569Z,24.18
2023-06-25T04:11:30.569Z,23.40
2023-06-25T04:14:00.358Z,24.20
2023-06-25T04:16:29.179Z,25.20
2023-06-25T04:18:57.580Z,25.85
2023-06-25T04:21:25.466Z,26.13
2023-06-25T04:23:53.834Z,27.71
2023-06-25T04:26:21.833Z,25.75
2023-06-25T04:28:49.760Z,25.52
2023-06-25T04:31:19.649Z,26.34
2023-06-25T04:33:47.652Z,28.46
2023-06-25T04:36:16.824Z,26.90
2023-06-25T04:38:45.200Z,27.80
2023-06-25T04:41:13.171Z,28.81
2023-06-25T04:43:41.174Z,29.58
2023-06-25T04:46:09.526Z,29.64
2023-06-25T04:48:39.246Z,28.45
2023-06-25T04:51:08.188Z,30.16
2023-06-25T04:53:36.233Z,29.90
2023-06-25T04:56:04.140Z,30.16
2023-06-25T04:58:32.116Z,29.65
2023-06-25T05:01:00.492Z,30.74
2023-06-25T05:03:28.474Z,30.30
2023-06-25T05:05:58.079Z,30.89
2023-06-25T05:08:26.504Z,30.72
2023-06-25T05:10:54.473Z,32.77
2023-06-25T05:13:22.411Z,32.15
2023-06-25T05:15:50.795Z,34.11
2023-06-25T05:18:18.678Z,33.05
2023-06-25T05:20:47.022Z,32.51
2023-06-25T05:23:16.832Z,34.56
2023-06-25T05:25:45.730Z,32.31
2023-06-25T05:28:13.754Z,33.18
2023-06-25T05:30:42.099Z,33.94
2023-06-25T05:33:09.992Z,34.98
2023-06-25T05:35:38.988Z,33.55
2023-06-25T05:38:09.331Z,33.19
2023-06-25T05:40:38.555Z,34.21
2023-06-25T05:43:06.514Z,33.54
2023-06-25T05:45:35.254Z,34.26
2023-06-25T05:48:03.396Z,36.28
2023-06-25T05:50:31.764Z,36.10
2023-06-25T05:52:59.705Z,36.18
2023-06-25T05:55:27.629Z,37.32
2023-06-25T05:57:56.847Z,37.33
2023-06-25T06:00:25.176Z,36.72
2023-06-25T06:02:53.139Z,39.71
2023-06-25T06:05:21.403Z,36.51
2023-06-25T06:07:49.762Z,39.75
2023-06-25T06:10:18.639Z,41.49
2023-06-25T06:12:47.181Z,38.81
2023-06-25T06:15:17.021Z,35.67
2023-06-25T06:17:45.017Z,38.26
2023-06-25T06:20:14.276Z,39.23
2023-06-25T06:22:42.600Z,41.28
2023-06-25T06:25:10.849Z,38.18
2023-06-25T06:27:39.264Z,38.97
2023-06-25T06:30:08.868Z,38.99
2023-06-25T06:32:38.705Z,38.39
2023-06-25T06:35:07.111Z,36.36
2023-06-25T06:37:35.103Z,36.97
2023-06-25T06:40:03.481Z,39.96
2023-06-25T06:42:31.345Z,39.37
2023-06-25T06:44:59.654Z,40.25
2023-06-25T06:47:27.582Z,38.75
2023-06-25T06:49:56.948Z,40.64
2023-06-25T06:52:27.976Z,41.38
2023-06-25T06:54:55.939Z,39.32
2023-06-25T06:57:24.138Z,39.73
2023-06-25T06:59:52.512Z,39.66
2023-06-25T07:02:20.620Z,39.50
2023-06-25T07:04:48.557Z,40.17
2023-06-25T07:07:18.396Z,42.76
2023-06-25T07:09:52.173Z,39.05
2023-06-25T07:12:20.704Z,41.32
2023-06-25T07:14:49.057Z,38.25
2023-06-25T07:17:17.002Z,39.00
2023-06-25T07:19:45.435Z,40.68
2023-06-25T07:22:13.885Z,41.25
2023-06-25T07:24:43.715Z,41.90
2023-06-25T07:27:12.661Z,40.83
2023-06-25T07:29:40.602Z,40.95
2023-06-25T07:32:09.513Z,40.43
2023-06-25T07:34:38.247Z,39.73
2023-06-25T07:37:07.996Z,38.35
2023-06-25T07:39:35.887Z,40.83
2023-06-25T07:42:06.336Z,40.31
2023-06-25T07:44:50.564Z,43.55
2023-06-25T07:47:22.644Z,41.42
2023-06-25T07:49:50.652Z,41.39
2023-06-25T07:52:18.867Z,41.31
2023-06-25T07:54:47.264Z,42.08
2023-06-25T07:57:16.780Z,41.59
2023-06-25T07:59:51.981Z,40.41
2023-06-25T08:02:22.981Z,40.16
2023-06-25T08:04:51.487Z,43.28
2023-06-25T08:07:19.722Z,42.13
2023-06-25T08:09:51.057Z,42.88
2023-06-25T08:12:23.295Z,41.50
2023-06-25T08:14:53.244Z,42.36
2023-06-25T08:17:21.236Z,42.69
2023-06-25T08:19:49.163Z,41.30
2023-06-25T08:22:17.762Z,40.70
2023-06-25T08:24:46.139Z,44.92
2023-06-25T08:27:14.081Z,44.14
2023-06-25T08:29:44.571Z,43.32
2023-06-25T08:32:12.497Z,43.39
2023-06-25T08:34:40.490Z,40.27
2023-06-25T08:37:08.853Z,45.11
2023-06-25T08:39:36.811Z,43.52
2023-06-25T08:42:05.208Z,43.79
2023-06-25T08:44:33.655Z,40.44
2023-06-25T08:47:03.625Z,44.73
2023-06-25T08:49:32.827Z,42.38
2023-06-25T08:52:02.391Z,39.16
2023-06-25T08:54:30.287Z,42.66
2023-06-25T08:56:58.675Z,40.60
2023-06-25T08:59:26.468Z,38.94
2023-06-25T09:01:54.859Z,41.41
2023-06-25T09:04:24.538Z,41.93
2023-06-25T09:07:04.007Z,41.21
2023-06-25T09:09:33.738Z,41.59
2023-06-25T09:12:01.838Z,41.62
2023-06-25T09:14:31.777Z,43.39
2023-06-25T09:16:59.750Z,40.73
2023-06-25T09:19:28.991Z,44.81
2023-06-25T09:21:57.104Z,42.91
2023-06-25T09:24:25.647Z,46.32
2023-06-25T09:26:54.560Z,43.94
2023-06-25T09:29:24.768Z,42.85
2023-06-25T09:31:52.715Z,40.94
2023-06-25T09:34:21.214Z,41.62
2023-06-25T09:36:52.003Z,40.28
2023-06-25T09:39:19.848Z,38.56
2023-06-25T09:41:48.790Z,40.12
2023-06-25T09:44:18.970Z,42.29
2023-06-25T09:46:49.769Z,40.99
2023-06-25T09:49:21.254Z,39.73
2023-06-25T09:51:55.863Z,38.93
2023-06-25T09:54:26.103Z,39.39
2023-06-25T09:56:55.810Z,39.06
2023-06-25T09:59:24.891Z,36.58
2023-06-25T10:01:54.425Z,40.34
2023-06-25T10:04:22.917Z,41.11
2023-06-25T10:06:52.645Z,42.02
2023-06-25T10:09:21.287Z,40.94
2023-06-25T10:11:52.397Z,38.76
2023-06-25T10:14:20.679Z,39.66
2023-06-25T10:16:54.763Z,38.92
2023-06-25T10:19:23.347Z,40.58
2023-06-25T10:22:03.010Z,40.33
2023-06-25T10:24:40.527Z,39.47
2023-06-25T10:27:09.032Z,41.76
2023-06-25T10:29:43.535Z,41.20
2023-06-25T10:32:13.946Z,41.17
2023-06-25T10:34:42.355Z,40.02
2023-06-25T10:37:15.079Z,40.70
2023-06-25T10:39:43.913Z,40.36
2023-06-25T10:42:12.792Z,38.18
2023-06-25T10:44:42.464Z,38.60
2023-06-25T10:47:12.608Z,37.12
2023-06-25T10:49:42.190Z,38.45
2023-06-25T10:52:11.895Z,37.94
2023-06-25T10:54:39.857Z,36.46
2023-06-25T10:57:09.507Z,36.84
2023-06-25T10:59:38.239Z,38.88
2023-06-25T11:02:14.166Z,38.28
2023-06-25T11:04:42.620Z,38.89
2023-06-25T11:07:12.970Z,37.64
2023-06-25T11:09:40.967Z,37.32
2023-06-25T11:12:10.231Z,36.62
2023-06-25T11:14:38.082Z,35.96
2023-06-25T11:17:06.662Z,35.89
2023-06-25T11:19:35.037Z,35.97
2023-06-25T11:22:06.891Z,36.44
2023-06-25T11:24:38.952Z,36.41
2023-06-25T11:27:08.645Z,35.63
2023-06-25T11:29:38.929Z,36.07
2023-06-25T11:32:09.663Z,35.37
2023-06-25T11:34:38.870Z,35.14
2023-06-25T11:37:13.571Z,34.87
2023-06-25T11:39:47.772Z,35.06
2023-06-25T11:42:17.305Z,34.22
2023-06-25T11:44:46.051Z,35.06
2023-06-25T11:47:17.885Z,36.52
2023-06-25T11:49:54.851Z,36.18
2023-06-25T11:52:23.432Z,34.04
2023-06-25T11:54:52.852Z,35.01
2023-06-25T11:57:20.963Z,34.39
2023-06-25T11:59:49.442Z,34.43
2023-06-25T12:02:17.293Z,34.62
2023-06-25T12:04:45.714Z,33.20
2023-06-25T12:07:14.737Z,34.18
2023-06-25T12:09:42.742Z,34.84
2023-06-25T12:12:13.002Z,33.52
2023-06-25T12:14:41.088Z,33.51
2023-06-25T12:17:09.000Z,34.00
2023-06-25T12:19:37.344Z,33.42
2023-06-25T12:22:05.614Z,33.92
2023-06-25T12:24:33.461Z,34.18
2023-06-25T12:27:01.844Z,34.01
2023-06-25T12:29:32.581Z,34.01
2023-06-25T12:32:00.513Z,34.13
2023-06-25T12:34:28.846Z,34.04
2023-06-25T12:36:56.846Z,33.24
2023-06-25T12:39:24.730Z,33.36
2023-06-25T12:41:53.234Z,33.32
2023-06-25T12:44:21.188Z,33.33
2023-06-25T12:46:50.492Z,32.49
2023-06-25T12:49:18.848Z,31.60
2023-06-25T12:51:47.565Z,31.86
2023-06-25T12:54:16.792Z,32.47
2023-06-25T12:56:45.601Z,31.74
2023-06-25T12:59:13.564Z,31.59
2023-06-25T13:01:41.812Z,32.29
2023-06-25T13:04:12.163Z,32.12
2023-06-25T13:06:40.997Z,31.90
2023-06-25T13:09:11.239Z,31.33
2023-06-25T13:11:40.400Z,31.85
2023-06-25T13:14:09.445Z,31.65
2023-06-25T13:16:37.320Z,31.72
2023-06-25T13:19:05.806Z,31.63
2023-06-25T13:21:36.751Z,31.27
2023-06-25T13:24:04.770Z,31.77
2023-06-25T13:26:33.226Z,31.66
2023-06-25T13:29:01.083Z,31.93
2023-06-25T13:31:29.622Z,32.16
2023-06-25T13:33:58.025Z,32.15
2023-06-25T13:36:26.613Z,31.87
2023-06-25T13:38:57.055Z,31.99
2023-06-25T13:41:24.944Z,32.00
2023-06-25T13:43:53.452Z,32.15
2023-06-25T13:46:22.105Z,32.87
2023-06-25T13:48:50.501Z,32.91
2023-06-25T13:51:18.428Z,32.77
2023-06-25T13:53:47.181Z,33.13
2023-06-25T13:56:16.883Z,32.58
2023-06-25T13:58:45.169Z,32.86
2023-06-25T14:01:13.804Z,32.00
2023-06-25T14:03:42.078Z,32.12
2023-06-25T14:06:10.902Z,31.91
2023-06-25T14:08:39.436Z,32.07
2023-06-25T14:11:07.512Z,32.43
2023-06-25T14:13:37.473Z,31.66
2023-06-25T14:16:15.051Z,31.83
2023-06-25T14:18:44.593Z,31.65
2023-06-25T14:21:12.638Z,31.13
2023-06-25T14:23:40.752Z,31.02
2023-06-25T14:26:09.324Z,30.63
2023-06-25T14:28:38.673Z,30.94
2023-06-25T14:31:07.049Z,31.22
2023-06-25T14:33:36.433Z,31.20
2023-06-25T14:36:04.605Z,31.07
2023-06-25T14:38:32.873Z,30.71
2023-06-25T14:41:01.174Z,30.94
2023-06-25T14:43:29.040Z,31.02
2023-06-25T14:45:58.427Z,30.92
2023-06-25T14:48:27.314Z,31.15
2023-06-25T14:50:55.602Z,30.89
2023-06-25T14:53:23.872Z,30.76
2023-06-25T14:55:52.305Z,30.98
2023-06-25T14:58:20.687Z,30.78
2023-06-25T15:00:48.980Z,30.70
2023-06-25T15:03:18.758Z,29.79
2023-06-25T15:06:03.208Z,30.71
2023-06-25T15:08:35.158Z,31.09
2023-06-25T15:11:03.119Z,30.81
2023-06-25T15:13:30.964Z,31.17
2023-06-25T15:15:59.405Z,30.99
2023-06-25T15:18:28.728Z,31.44
2023-06-25T15:20:57.096Z,31.67
2023-06-25T15:23:25.096Z,32.02
2023-06-25T15:25:54.618Z,32.26
2023-06-25T15:28:25.840Z,31.94
2023-06-25T15:30:55.323Z,31.65
2023-06-25T15:33:23.817Z,31.54
2023-06-25T15:35:54.026Z,31.88
2023-06-25T15:38:21.998Z,31.01
2023-06-25T15:40:50.831Z,30.95
2023-06-25T15:43:19.157Z,31.85
2023-06-25T15:45:47.448Z,32.20
2023-06-25T15:48:15.990Z,32.39
2023-06-25T15:50:43.899Z,32.23
2023-06-25T15:53:13.846Z,31.86
2023-06-25T15:55:42.188Z,31.64
2023-06-25T15:58:10.185Z,31.35
2023-06-25T16:00:38.877Z,31.42
2023-06-25T16:03:08.595Z,31.39
2023-06-25T16:05:37.153Z,31.38
2023-06-25T16:08:05.764Z,30.87
2023-06-25T16:10:36.520Z,32.35
2023-06-25T16:13:04.514Z,31.83
2023-06-25T16:15:32.870Z,31.49
2023-06-25T16:18:00.792Z,31.55
2023-06-25T16:20:29.954Z,32.25
2023-06-25T16:22:57.965Z,31.57
2023-06-25T16:25:26.305Z,31.73
2023-06-25T16:27:55.574Z,31.60
2023-06-25T16:30:23.416Z,31.42
2023-06-25T16:32:52.474Z,32.32
2023-06-25T16:35:20.503Z,32.88
2023-06-25T16:37:48.972Z,32.74
2023-06-25T16:40:17.463Z,33.12
2023-06-25T16:42:45.336Z,33.39
2023-06-25T16:45:15.475Z,33.41
2023-06-25T16:47:43.844Z,33.14
2023-06-25T16:50:11.832Z,32.73
2023-06-25T16:52:39.790Z,32.63
2023-06-25T16:55:08.469Z,32.72
2023-06-25T16:57:36.429Z,32.35
2023-06-25T17:00:05.755Z,32.20
2023-06-25T17:02:36.078Z,32.06
2023-06-25T17:05:04.550Z,32.09
2023-06-25T17:07:32.533Z,31.96
2023-06-25T17:10:01.042Z,32.21
2023-06-25T17:12:28.909Z,32.06
2023-06-25T17:14:57.245Z,32.36
2023-06-25T17:17:25.711Z,32.47
2023-06-25T17:19:55.011Z,32.22
2023-06-25T17:22:22.969Z,32.10
2023-06-25T17:24:50.863Z,31.65
2023-06-25T17:27:21.515Z,31.43
2023-06-25T17:29:54.121Z,31.13
2023-06-25T17:32:22.080Z,30.91
2023-06-25T17:34:50.072Z,30.89
2023-06-25T17:37:19.802Z,30.78
2023-06-25T17:39:47.807Z,30.78
2023-06-25T17:42:15.805Z,30.84
2023-06-25T17:44:44.312Z,30.62
2023-06-25T17:47:12.221Z,30.50
2023-06-25T17:49:40.068Z,30.24
2023-06-25T17:52:08.978Z,30.19
2023-06-25T17:54:38.244Z,30.23
2023-06-25T17:57:06.454Z,30.31
2023-06-25T17:59:34.761Z,30.25
2023-06-25T18:02:02.659Z,30.15
2023-06-25T18:04:30.991Z,30.11
2023-06-25T18:06:59.321Z,29.96
2023-06-25T18:09:27.304Z,29.77
2023-06-25T18:11:57.329Z,29.62
2023-06-25T18:14:25.711Z,29.49
2023-06-25T18:16:53.564Z,29.43
2023-06-25T18:19:22.414Z,29.44
2023-06-25T18:21:51.028Z,29.43
2023-06-25T18:24:19.031Z,29.43
2023-06-25T18:26:47.671Z,29.22
2023-06-25T18:29:17.146Z,29.33
2023-06-25T18:31:46.774Z,29.34
2023-06-25T18:34:16.021Z,29.30
2023-06-25T18:36:46.933Z,29.13
2023-06-25T18:39:16.085Z,29.02
2023-06-25T18:41:44.088Z,29.01
2023-06-25T18:44:14.819Z,28.74
2023-06-25T18:46:44.232Z,28.70
2023-06-25T18:49:12.778Z,28.62
2023-06-25T18:51:40.770Z,28.48
2023-06-25T18:54:08.942Z,28.50
2023-06-25T18:56:37.433Z,28.25
2023-06-25T18:59:05.539Z,28.22
2023-06-25T19:01:33.564Z,28.12
2023-06-25T19:04:04.593Z,27.99
2023-06-25T19:06:33.233Z,27.90
2023-06-25T19:09:01.248Z,27.81
2023-06-25T19:11:29.376Z,27.69
2023-06-25T19:13:57.337Z,27.61
2023-06-25T19:16:25.262Z,27.48
2023-06-25T19:18:53.273Z,27.34
2023-06-25T19:21:22.622Z,27.20
2023-06-25T19:23:51.028Z,27.09
2023-06-25T19:26:18.968Z,26.87
2023-06-25T19:28:46.846Z,26.71
2023-06-25T19:31:15.584Z,26.59
2023-06-25T19:33:43.629Z,26.53
2023-06-25T19:36:12.678Z,26.39
2023-06-25T19:38:42.558Z,26.32
2023-06-25T19:41:11.235Z,26.18
2023-06-25T19:43:41.705Z,26.01
2023-06-25T19:46:09.806Z,25.93
2023-06-25T19:48:37.956Z,25.99
2023-06-25T19:51:06.530Z,25.78
2023-06-25T19:53:34.527Z,25.62
2023-06-25T19:56:03.854Z,25.27
2023-06-25T19:58:32.325Z,25.16
2023-06-25T20:01:00.333Z,25.15
2023-06-25T20:03:28.367Z,25.19
2023-06-25T20:05:56.837Z,25.25
2023-06-25T20:08:25.328Z,25.17
2023-06-25T20:10:53.438Z,25.15
2023-06-25T20:13:23.171Z,25.18
2023-06-25T20:15:51.161Z,25.31
2023-06-25T20:18:19.228Z,25.36
2023-06-25T20:20:47.703Z,25.31
2023-06-25T20:23:15.694Z,24.86
2023-06-25T20:25:43.895Z,24.84
2023-06-25T20:28:12.269Z,24.81
2023-06-25T20:30:42.744Z,24.66
2023-06-25T20:33:12.363Z,24.70
2023-06-25T20:35:40.229Z,24.46
2023-06-25T20:38:08.115Z,24.06
2023-06-25T20:40:37.155Z,23.84
2023-06-25T20:43:07.930Z,23.81
2023-06-25T20:45:37.605Z,23.78
2023-06-25T20:48:07.452Z,23.92
2023-06-25T20:50:35.626Z,24.05
2023-06-25T20:53:04.177Z,24.01
2023-06-25T20:55:32.099Z,23.83
2023-06-25T20:58:00.536Z,23.48
2023-06-25T21:00:28.949Z,23.29
2023-06-25T21:02:57.264Z,23.27
2023-06-25T21:05:27.341Z,23.38
2023-06-25T21:07:55.739Z,23.57
2023-06-25T21:10:23.689Z,23.78
2023-06-25T21:12:51.657Z,23.87
2023-06-25T21:15:20.325Z,23.77
2023-06-25T21:17:48.375Z,23.83
2023-06-25T21:20:16.833Z,23.72
2023-06-25T21:22:46.302Z,23.34
2023-06-25T21:25:14.477Z,23.08
2023-06-25T21:27:42.976Z,23.02
2023-06-25T21:30:12.220Z,22.82
2023-06-25T21:32:40.695Z,22.72
2023-06-25T21:35:11.706Z,22.67
2023-06-25T21:37:40.040Z,22.60
2023-06-25T21:40:10.323Z,22.55
2023-06-25T21:42:38.273Z,22.48
2023-06-25T21:45:07.268Z,22.45
2023-06-25T21:47:35.343Z,22.43
2023-06-25T21:50:03.452Z,22.29
2023-06-25T21:52:31.807Z,22.22
2023-06-25T21:54:59.750Z,22.11
2023-06-25T21:57:29.045Z,22.02
2023-06-25T21:59:57.464Z,22.02
2023-06-25T22:02:25.685Z,21.87
2023-06-25T22:04:53.781Z,21.76
2023-06-25T22:07:22.237Z,21.79
2023-06-25T22:09:50.270Z,21.69
2023-06-25T22:12:19.075Z,21.55
2023-06-25T22:14:48.895Z,21.57
2023-06-25T22:17:16.994Z,21.57
2023-06-25T22:19:44.973Z,21.55
2023-06-25T22:22:13.370Z,21.50
2023-06-25T22:24:41.304Z,21.54
2023-06-25T22:27:09.206Z,21.46
2023-06-25T22:29:42.502Z,21.42
2023-06-25T22:32:13.009Z,21.36
2023-06-25T22:34:41.864Z,21.25
2023-06-25T22:37:09.858Z,21.26
2023-06-25T22:39:39.077Z,21.21
2023-06-25T22:42:07.555Z,21.16
2023-06-25T22:44:36.055Z,21.19
2023-06-25T22:47:04.616Z,21.14
2023-06-25T22:49:33.900Z,21.05
2023-06-25T22:52:02.686Z,20.98
2023-06-25T22:54:30.683Z,20.88
2023-06-25T22:56:58.613Z,20.71
2023-06-25T22:59:27.024Z,20.79
2023-06-25T23:01:55.560Z,20.74
2023-06-25T23:04:23.586Z,20.70
2023-06-25T23:06:53.382Z,20.61
2023-06-25T23:09:21.370Z,20.64
2023-06-25T23:11:49.360Z,20.64
2023-06-25T23:14:17.730Z,20.23
2023-06-25T23:16:45.690Z,20.30
2023-06-25T23:19:13.781Z,20.44
2023-06-25T23:21:47.229Z,20.32
2023-06-25T23:24:16.737Z,20.13
2023-06-25T23:26:48.095Z,20.06
2023-06-25T23:29:17.743Z,19.92
2023-06-25T23:31:46.771Z,19.96
2023-06-25T23:34:15.416Z,19.82
2023-06-25T23:36:43.494Z,20.03
2023-06-25T23:39:11.975Z,19.81
2023-06-25T23:41:41.284Z,19.77
2023-06-25T23:44:09.667Z,19.85
2023-06-25T23:46:37.658Z,19.72
2023-06-25T23:49:06.620Z,19.78
2023-06-25T23:51:34.834Z,19.74
2023-06-25T23:54:02.865Z,19.74
2023-06-25T23:56:33.659Z,19.68
2023-06-25T23:59:04.047Z,19.53
